createdAt,value
2022-08-21T00:00:29.597Z,19.59
2022-08-21T00:03:00.135Z,19.53
2022-08-21T00:05:27.636Z,19.51
2022-08-21T00:07:54.971Z,19.47
2022-08-21T00:10:21.955Z,19.42
2022-08-21T00:12:49.431Z,19.39
2022-08-21T00:15:20.634Z,19.38
2022-08-21T00:17:47.385Z,19.33
2022-08-21T00:20:16.467Z,19.29
2022-08-21T00:22:43.607Z,19.25
2022-08-21T00:25:11.080Z,19.24
2022-08-21T00:27:37.874Z,19.19
2022-08-21T00:30:07.196Z,19.14
2022-08-21T00:32:34.814Z,19.10
2022-08-21T00:35:01.621Z,19.05
2022-08-21T00:37:28.184Z,19.04
2022-08-21T00:39:57.525Z,19.02
2022-08-21T00:42:24.106Z,18.98
2022-08-21T00:44:51.657Z,18.96
2022-08-21T00:47:19.842Z,18.93
2022-08-21T00:49:46.592Z,18.92
2022-08-21T00:52:22.934Z,18.92
2022-08-21T00:54:51.641Z,18.89
2022-08-21T00:57:26.773Z,18.87
2022-08-21T00:59:58.909Z,18.88
2022-08-21T01:02:25.672Z,18.89
2022-08-21T01:04:52.875Z,18.92
2022-08-21T01:07:20.954Z,18.94
2022-08-21T01:09:49.899Z,18.96
2022-08-21T01:12:16.773Z,18.96
2022-08-21T01:14:43.782Z,18.94
2022-08-21T01:17:13.551Z,18.92
2022-08-21T01:19:40.977Z,18.87
2022-08-21T01:22:08.153Z,18.84
2022-08-21T01:24:35.507Z,18.79
2022-08-21T01:27:03.785Z,18.78
2022-08-21T01:29:34.630Z,18.81
2022-08-21T01:32:06.386Z,18.84
2022-08-21T01:34:39.311Z,18.85
2022-08-21T01:37:06.592Z,18.81
2022-08-21T01:39:33.391Z,18.78
2022-08-21T01:42:00.122Z,18.73
2022-08-21T01:44:27.850Z,18.68
2022-08-21T01:46:54.974Z,18.64
2022-08-21T01:49:22.051Z,18.62
2022-08-21T01:51:48.664Z,18.61
2022-08-21T01:54:15.398Z,18.63
2022-08-21T01:56:49.498Z,18.64
2022-08-21T01:59:16.155Z,18.65
2022-08-21T02:01:42.733Z,18.64
2022-08-21T02:04:11.887Z,18.66
2022-08-21T02:06:38.639Z,18.67
2022-08-21T02:09:07.380Z,18.70
2022-08-21T02:11:34.792Z,18.69
2022-08-21T02:14:05.782Z,18.64
2022-08-21T02:16:32.412Z,18.60
2022-08-21T02:18:59.927Z,18.59
2022-08-21T02:21:26.810Z,18.59
2022-08-21T02:23:58.502Z,18.59
2022-08-21T02:26:25.383Z,18.56
2022-08-21T02:28:52.202Z,18.51
2022-08-21T02:31:18.783Z,18.45
2022-08-21T02:33:45.481Z,18.39
2022-08-21T02:36:12.534Z,18.38
2022-08-21T02:38:41.529Z,18.40
2022-08-21T02:41:14.100Z,18.42
2022-08-21T02:43:41.658Z,18.43
2022-08-21T02:46:10.088Z,18.42
2022-08-21T02:48:36.969Z,18.40
2022-08-21T02:51:11.750Z,18.36
2022-08-21T02:53:41.262Z,18.33
2022-08-21T02:56:11.853Z,18.36
2022-08-21T02:58:42.810Z,18.38
2022-08-21T03:01:11.266Z,18.43
2022-08-21T03:03:44.658Z,18.46
2022-08-21T03:06:13.943Z,18.47
2022-08-21T03:08:40.795Z,18.45
2022-08-21T03:11:08.667Z,18.42
2022-08-21T03:13:40.423Z,18.42
2022-08-21T03:16:09.994Z,18.42
2022-08-21T03:18:37.431Z,18.42
2022-08-21T03:21:05.089Z,18.41
2022-08-21T03:23:32.773Z,18.43
2022-08-21T03:25:59.803Z,18.43
2022-08-21T03:28:26.718Z,18.45
2022-08-21T03:30:53.831Z,18.43
2022-08-21T03:33:25.194Z,18.43
2022-08-21T03:36:05.344Z,18.39
2022-08-21T03:38:34.214Z,18.34
2022-08-21T03:41:02.034Z,18.28
2022-08-21T03:43:32.678Z,18.19
2022-08-21T03:46:02.208Z,18.13
2022-08-21T03:48:28.800Z,18.07
2022-08-21T03:50:55.665Z,18.00
2022-08-21T03:53:26.683Z,17.94
2022-08-21T03:55:53.565Z,17.91
2022-08-21T03:58:23.719Z,17.87
2022-08-21T04:00:56.539Z,17.83
2022-08-21T04:03:27.626Z,17.79
2022-08-21T04:05:54.240Z,17.73
2022-08-21T04:08:20.936Z,17.70
2022-08-21T04:10:50.896Z,17.66
2022-08-21T04:13:19.174Z,17.62
2022-08-21T04:15:45.771Z,17.60
2022-08-21T04:18:12.664Z,17.55
2022-08-21T04:20:40.522Z,17.48
2022-08-21T04:23:11.502Z,17.44
2022-08-21T04:25:38.091Z,17.42
2022-08-21T04:28:04.991Z,17.41
2022-08-21T04:30:31.713Z,17.37
2022-08-21T04:32:59.429Z,17.32
2022-08-21T04:35:28.968Z,17.25
2022-08-21T04:37:56.026Z,17.18
2022-08-21T04:40:25.727Z,17.14
2022-08-21T04:43:21.534Z,17.13
2022-08-21T04:45:50.074Z,17.14
2022-08-21T04:48:19.911Z,17.16
2022-08-21T04:50:52.364Z,17.17
2022-08-21T04:53:38.523Z,17.18
2022-08-21T04:56:09.524Z,17.19
2022-08-21T04:58:38.245Z,17.17
2022-08-21T05:01:07.726Z,17.15
2022-08-21T05:03:37.655Z,17.17
2022-08-21T05:06:11.363Z,17.19
2022-08-21T05:08:39.316Z,17.22
2022-08-21T05:11:06.624Z,17.27
2022-08-21T05:13:37.914Z,17.31
2022-08-21T05:16:04.680Z,17.35
2022-08-21T05:18:31.238Z,17.36
2022-08-21T05:20:58.051Z,17.37
2022-08-21T05:23:26.497Z,17.37
2022-08-21T05:25:54.272Z,17.36
2022-08-21T05:28:20.833Z,17.37
2022-08-21T05:30:47.635Z,17.39
2022-08-21T05:33:16.123Z,17.40
2022-08-21T05:35:42.691Z,17.42
2022-08-21T05:38:17.857Z,17.45
2022-08-21T05:40:46.191Z,17.49
2022-08-21T05:43:14.141Z,17.53
2022-08-21T05:45:42.625Z,17.56
2022-08-21T05:48:21.544Z,17.60
2022-08-21T05:50:50.308Z,17.64
2022-08-21T05:53:22.098Z,17.70
2022-08-21T05:55:49.253Z,17.75
2022-08-21T05:58:18.998Z,17.80
2022-08-21T06:00:48.286Z,17.86
2022-08-21T06:03:25.172Z,17.92
2022-08-21T06:05:53.274Z,17.98
2022-08-21T06:08:21.152Z,18.03
2022-08-21T06:10:49.318Z,18.12
2022-08-21T06:13:21.811Z,18.22
2022-08-21T06:15:49.433Z,18.31
2022-08-21T06:18:16.838Z,18.41
2022-08-21T06:20:44.130Z,18.55
2022-08-21T06:23:12.561Z,18.66
2022-08-21T06:25:39.098Z,18.83
2022-08-21T06:28:08.605Z,19.00
2022-08-21T06:30:37.060Z,19.16
2022-08-21T06:33:07.861Z,19.31
2022-08-21T06:35:35.548Z,19.48
2022-08-21T06:38:02.192Z,19.66
2022-08-21T06:40:30.009Z,19.85
2022-08-21T06:42:58.639Z,20.01
2022-08-21T06:45:25.621Z,20.17
2022-08-21T06:47:54.947Z,20.31
2022-08-21T06:50:21.437Z,20.43
2022-08-21T06:52:48.025Z,20.57
2022-08-21T06:55:22.309Z,20.71
2022-08-21T06:57:52.551Z,20.84
2022-08-21T07:00:20.346Z,20.99
2022-08-21T07:02:46.945Z,21.14
2022-08-21T07:05:17.993Z,21.31
2022-08-21T07:07:45.403Z,21.51
2022-08-21T07:10:22.009Z,21.70
2022-08-21T07:12:49.599Z,21.85
2022-08-21T07:15:18.087Z,21.93
2022-08-21T07:17:44.693Z,21.99
2022-08-21T07:20:11.355Z,22.11
2022-08-21T07:22:41.199Z,22.24
2022-08-21T07:25:08.411Z,22.35
2022-08-21T07:27:34.998Z,22.47
2022-08-21T07:30:01.910Z,22.61
2022-08-21T07:32:28.474Z,22.74
2022-08-21T07:34:56.547Z,22.87
2022-08-21T07:37:23.249Z,22.99
2022-08-21T07:39:50.006Z,23.11
2022-08-21T07:42:17.941Z,23.24
2022-08-21T07:44:45.335Z,23.38
2022-08-21T07:47:11.986Z,23.51
2022-08-21T07:49:38.765Z,23.60
2022-08-21T07:52:05.350Z,23.69
2022-08-21T07:54:34.429Z,23.74
2022-08-21T07:57:02.068Z,23.82
2022-08-21T07:59:29.210Z,23.87
2022-08-21T08:01:55.942Z,23.93
2022-08-21T08:04:26.711Z,23.97
2022-08-21T08:06:53.700Z,23.99
2022-08-21T08:09:20.730Z,24.01
2022-08-21T08:11:47.364Z,24.08
2022-08-21T08:14:18.457Z,24.18
2022-08-21T08:16:45.262Z,24.28
2022-08-21T08:19:11.793Z,24.44
2022-08-21T08:21:39.292Z,24.60
2022-08-21T08:24:18.758Z,24.74
2022-08-21T08:26:46.810Z,24.90
2022-08-21T08:29:20.426Z,25.00
2022-08-21T08:31:46.945Z,25.13
2022-08-21T08:34:25.474Z,25.25
2022-08-21T08:36:52.383Z,25.40
2022-08-21T08:39:26.747Z,25.52
2022-08-21T08:42:04.964Z,25.60
2022-08-21T08:44:58.570Z,25.65
2022-08-21T08:47:27.386Z,25.71
2022-08-21T08:50:00.952Z,25.76
2022-08-21T08:52:37.308Z,25.80
2022-08-21T08:55:15.284Z,25.82
2022-08-21T08:57:46.511Z,25.93
2022-08-21T09:00:20.153Z,26.15
2022-08-21T09:02:47.445Z,26.30
2022-08-21T09:05:27.901Z,26.45
2022-08-21T09:08:19.406Z,26.68
2022-08-21T09:11:02.075Z,26.83
2022-08-21T09:13:56.231Z,26.78
2022-08-21T09:17:15.637Z,26.63
2022-08-21T09:20:49.865Z,26.63
2022-08-21T09:23:35.796Z,26.65
2022-08-21T09:26:14.239Z,26.64
2022-08-21T09:28:43.879Z,26.69
2022-08-21T09:31:24.435Z,26.76
2022-08-21T09:34:00.917Z,26.80
2022-08-21T09:36:35.122Z,26.84
2022-08-21T09:39:01.741Z,26.86
2022-08-21T09:41:32.081Z,26.88
2022-08-21T09:43:59.941Z,26.95
2022-08-21T09:46:28.641Z,27.07
2022-08-21T09:48:59.913Z,27.20
2022-08-21T09:51:37.684Z,27.41
2022-08-21T09:54:08.399Z,27.60
2022-08-21T09:56:54.658Z,27.75
2022-08-21T09:59:36.758Z,27.87
2022-08-21T10:02:32.749Z,27.92
2022-08-21T10:05:01.296Z,28.01
2022-08-21T10:07:31.187Z,28.08
2022-08-21T10:10:15.712Z,28.10
2022-08-21T10:13:18.770Z,28.13
2022-08-21T10:16:00.679Z,28.16
2022-08-21T10:18:36.482Z,28.15
2022-08-21T10:21:22.718Z,28.15
2022-08-21T10:24:31.750Z,28.18
2022-08-21T10:27:04.615Z,28.30
2022-08-21T10:29:40.697Z,28.37
2022-08-21T10:32:26.350Z,28.42
2022-08-21T10:35:14.441Z,28.39
2022-08-21T10:38:10.543Z,28.35
2022-08-21T10:41:02.049Z,28.43
2022-08-21T10:43:56.754Z,28.56
2022-08-21T10:46:37.415Z,28.74
2022-08-21T10:49:21.565Z,28.85
2022-08-21T10:51:57.137Z,28.98
2022-08-21T10:54:47.549Z,29.08
2022-08-21T10:57:32.288Z,29.23
2022-08-21T11:00:13.219Z,29.33
2022-08-21T11:02:47.255Z,29.36
2022-08-21T11:05:20.385Z,29.39
2022-08-21T11:07:52.658Z,29.36
2022-08-21T11:10:59.962Z,29.27
2022-08-21T11:13:49.752Z,29.13
2022-08-21T11:16:46.344Z,29.04
2022-08-21T11:19:36.036Z,28.99
2022-08-21T11:22:32.683Z,29.01
2022-08-21T11:25:16.767Z,29.09
2022-08-21T11:27:53.537Z,29.15
2022-08-21T11:30:20.138Z,29.23
2022-08-21T11:32:51.315Z,29.23
2022-08-21T11:35:33.447Z,29.24
2022-08-21T11:38:38.748Z,29.22
2022-08-21T11:41:20.118Z,29.29
2022-08-21T11:44:03.439Z,29.33
2022-08-21T11:46:34.579Z,29.37
2022-08-21T11:49:17.242Z,29.35
2022-08-21T11:52:17.365Z,29.30
2022-08-21T11:55:03.915Z,29.19
2022-08-21T11:57:40.177Z,29.11
2022-08-21T12:00:14.667Z,29.12
2022-08-21T12:02:47.374Z,29.17
2022-08-21T12:05:39.318Z,29.23
2022-08-21T12:08:10.941Z,29.25
2022-08-21T12:11:01.018Z,29.36
2022-08-21T12:13:36.724Z,29.47
2022-08-21T12:16:16.709Z,29.53
2022-08-21T12:18:44.216Z,29.58
2022-08-21T12:21:26.855Z,29.62
2022-08-21T12:24:03.466Z,29.74
2022-08-21T12:26:36.623Z,29.82
2022-08-21T12:29:12.295Z,29.89
2022-08-21T12:31:50.446Z,29.87
2022-08-21T12:34:18.569Z,29.81
2022-08-21T12:36:54.567Z,29.76
2022-08-21T12:39:27.810Z,29.71
2022-08-21T12:42:02.271Z,29.72
2022-08-21T12:44:36.322Z,29.72
2022-08-21T12:47:15.032Z,29.75
2022-08-21T12:50:04.855Z,29.81
2022-08-21T12:52:39.354Z,29.91
2022-08-21T12:55:16.631Z,29.96
2022-08-21T12:57:43.510Z,30.06
2022-08-21T13:00:14.142Z,30.18
2022-08-21T13:02:48.133Z,30.27
2022-08-21T13:05:21.357Z,30.30
2022-08-21T13:07:49.820Z,30.25
2022-08-21T13:10:26.400Z,30.28
2022-08-21T13:12:58.923Z,30.38
2022-08-21T13:15:34.959Z,30.52
2022-08-21T13:18:05.683Z,30.63
2022-08-21T13:20:39.177Z,30.79
2022-08-21T13:23:09.687Z,30.97
2022-08-21T13:25:38.507Z,31.08
2022-08-21T13:28:10.026Z,31.16
2022-08-21T13:30:41.149Z,31.23
2022-08-21T13:33:14.864Z,31.28
2022-08-21T13:36:04.884Z,31.34
2022-08-21T13:38:33.883Z,31.34
2022-08-21T13:41:05.767Z,31.31
2022-08-21T13:43:37.575Z,31.25
2022-08-21T13:46:11.576Z,31.26
2022-08-21T13:48:39.343Z,31.26
2022-08-21T13:51:06.325Z,31.22
2022-08-21T13:53:42.311Z,31.19
2022-08-21T13:56:09.290Z,31.18
2022-08-21T13:58:45.050Z,31.20
2022-08-21T14:01:28.504Z,31.26
2022-08-21T14:04:21.044Z,31.25
2022-08-21T14:06:48.094Z,31.29
2022-08-21T14:09:27.729Z,31.34
2022-08-21T14:11:56.806Z,31.41
2022-08-21T14:14:33.107Z,31.45
2022-08-21T14:17:24.501Z,31.46
2022-08-21T14:19:50.834Z,31.49
2022-08-21T14:22:35.731Z,31.55
2022-08-21T14:25:12.887Z,31.65
2022-08-21T14:27:50.549Z,31.75
2022-08-21T14:30:34.727Z,31.77
2022-08-21T14:33:18.246Z,31.76
2022-08-21T14:35:45.017Z,31.75
2022-08-21T14:38:17.325Z,31.70
2022-08-21T14:40:47.532Z,31.66
2022-08-21T14:43:20.022Z,31.59
2022-08-21T14:45:47.596Z,31.51
2022-08-21T14:48:14.247Z,31.40
2022-08-21T14:50:41.349Z,31.29
2022-08-21T14:53:12.110Z,31.23
2022-08-21T14:55:58.962Z,31.18
2022-08-21T14:58:26.207Z,31.10
2022-08-21T15:00:54.931Z,30.99
2022-08-21T15:03:24.720Z,30.89
2022-08-21T15:05:52.227Z,30.85
2022-08-21T15:08:19.529Z,30.80
2022-08-21T15:11:08.618Z,30.72
2022-08-21T15:13:34.887Z,30.63
2022-08-21T15:16:01.881Z,30.56
2022-08-21T15:18:30.940Z,30.49
2022-08-21T15:20:58.540Z,30.44
2022-08-21T15:23:25.812Z,30.34
2022-08-21T15:25:53.461Z,30.28
2022-08-21T15:28:22.176Z,30.25
2022-08-21T15:30:51.457Z,30.25
2022-08-21T15:33:20.144Z,30.26
2022-08-21T15:35:47.125Z,30.21
2022-08-21T15:38:14.809Z,30.15
2022-08-21T15:40:51.786Z,30.05
2022-08-21T15:43:30.197Z,29.99
2022-08-21T15:45:59.974Z,29.94
2022-08-21T15:48:26.575Z,29.89
2022-08-21T15:50:53.069Z,29.84
2022-08-21T15:53:19.664Z,29.77
2022-08-21T15:55:46.295Z,29.70
2022-08-21T15:58:16.261Z,29.63
2022-08-21T16:00:45.093Z,29.60
2022-08-21T16:03:18.873Z,29.57
2022-08-21T16:05:45.990Z,29.58
2022-08-21T16:08:12.594Z,29.58
2022-08-21T16:10:39.613Z,29.54
2022-08-21T16:13:15.903Z,29.52
2022-08-21T16:15:42.453Z,29.48
2022-08-21T16:18:09.974Z,29.41
2022-08-21T16:20:36.690Z,29.34
2022-08-21T16:23:09.523Z,29.29
2022-08-21T16:25:40.038Z,29.26
2022-08-21T16:28:12.205Z,29.23
2022-08-21T16:30:40.953Z,29.21
2022-08-21T16:33:42.532Z,29.18
2022-08-21T16:36:11.778Z,29.17
2022-08-21T16:38:39.582Z,29.08
2022-08-21T16:41:08.726Z,29.05
2022-08-21T16:43:35.604Z,29.02
2022-08-21T16:46:02.460Z,28.98
2022-08-21T16:48:31.540Z,28.95
2022-08-21T16:50:58.591Z,28.92
2022-08-21T16:53:29.659Z,28.92
2022-08-21T16:55:57.105Z,28.94
2022-08-21T16:58:27.158Z,28.87
2022-08-21T17:00:54.428Z,28.79
2022-08-21T17:03:34.318Z,28.74
2022-08-21T17:06:01.567Z,28.71
2022-08-21T17:08:28.266Z,28.68
2022-08-21T17:10:55.453Z,28.67
2022-08-21T17:13:22.808Z,28.66
2022-08-21T17:15:49.347Z,28.60
2022-08-21T17:18:19.941Z,28.58
2022-08-21T17:20:47.668Z,28.55
2022-08-21T17:23:19.670Z,28.53
2022-08-21T17:25:50.103Z,28.50
2022-08-21T17:28:21.876Z,28.44
2022-08-21T17:30:48.941Z,28.41
2022-08-21T17:33:19.669Z,28.40
2022-08-21T17:35:46.787Z,28.35
2022-08-21T17:38:14.693Z,28.32
2022-08-21T17:40:41.940Z,28.31
2022-08-21T17:43:15.064Z,28.29
2022-08-21T17:45:43.405Z,28.27
2022-08-21T17:48:10.190Z,28.25
2022-08-21T17:50:37.275Z,28.24
2022-08-21T17:53:08.108Z,28.20
2022-08-21T17:55:34.843Z,28.11
2022-08-21T17:58:02.254Z,28.02
2022-08-21T18:00:29.719Z,27.92
2022-08-21T18:03:24.845Z,27.81
2022-08-21T18:05:53.787Z,27.74
2022-08-21T18:08:20.517Z,27.64
2022-08-21T18:10:48.674Z,27.53
2022-08-21T18:13:23.628Z,27.46
2022-08-21T18:15:51.277Z,27.42
2022-08-21T18:18:18.178Z,27.44
2022-08-21T18:20:44.977Z,27.39
2022-08-21T18:23:12.936Z,27.33
2022-08-21T18:25:42.351Z,27.26
2022-08-21T18:28:08.927Z,27.21
2022-08-21T18:30:40.549Z,27.16
2022-08-21T18:33:13.718Z,27.11
2022-08-21T18:35:42.199Z,27.07
2022-08-21T18:38:09.538Z,27.03
2022-08-21T18:40:40.134Z,26.98
2022-08-21T18:43:15.715Z,26.91
2022-08-21T18:45:42.915Z,26.86
2022-08-21T18:48:12.403Z,26.80
2022-08-21T18:50:41.967Z,26.75
2022-08-21T18:53:18.355Z,26.70
2022-08-21T18:55:57.905Z,26.63
2022-08-21T18:58:32.892Z,26.57
2022-08-21T19:00:59.715Z,26.51
2022-08-21T19:03:29.545Z,26.45
2022-08-21T19:05:58.105Z,26.38
2022-08-21T19:08:28.625Z,26.29
2022-08-21T19:10:58.153Z,26.22
2022-08-21T19:13:28.345Z,26.15
2022-08-21T19:15:56.771Z,26.11
2022-08-21T19:18:28.206Z,26.03
2022-08-21T19:20:57.266Z,25.93
2022-08-21T19:23:31.311Z,25.85
2022-08-21T19:26:04.435Z,25.77
2022-08-21T19:28:40.807Z,25.69
2022-08-21T19:31:16.275Z,25.65
2022-08-21T19:33:52.674Z,25.63
2022-08-21T19:36:22.228Z,25.58
2022-08-21T19:38:48.750Z,25.54
2022-08-21T19:41:17.361Z,25.48
2022-08-21T19:43:54.582Z,25.42
2022-08-21T19:46:27.277Z,25.35
2022-08-21T19:48:55.465Z,25.31
2022-08-21T19:51:23.261Z,25.27
2022-08-21T19:53:57.062Z,25.24
2022-08-21T19:56:26.864Z,25.20
2022-08-21T19:58:53.734Z,25.15
2022-08-21T20:01:21.933Z,25.11
2022-08-21T20:03:53.817Z,25.08
2022-08-21T20:06:24.084Z,25.06
2022-08-21T20:08:51.927Z,25.06
2022-08-21T20:11:26.580Z,25.06
2022-08-21T20:13:54.505Z,25.05
2022-08-21T20:16:21.546Z,25.06
2022-08-21T20:18:48.966Z,25.08
2022-08-21T20:21:16.265Z,25.08
2022-08-21T20:23:49.077Z,25.08
2022-08-21T20:26:16.920Z,25.06
2022-08-21T20:28:44.230Z,25.05
2022-08-21T20:31:11.110Z,25.04
2022-08-21T20:33:45.205Z,25.01
2022-08-21T20:36:16.811Z,24.99
2022-08-21T20:38:44.153Z,24.98
2022-08-21T20:41:17.904Z,24.95
2022-08-21T20:43:52.710Z,24.94
2022-08-21T20:46:23.729Z,24.91
2022-08-21T20:48:51.167Z,24.87
2022-08-21T20:51:35.998Z,24.83
2022-08-21T20:54:21.113Z,24.79
2022-08-21T20:57:03.883Z,24.76
2022-08-21T20:59:33.418Z,24.73
2022-08-21T21:02:16.301Z,24.68
2022-08-21T21:05:05.699Z,24.63
2022-08-21T21:07:41.705Z,24.60
2022-08-21T21:10:15.195Z,24.55
2022-08-21T21:12:49.996Z,24.50
2022-08-21T21:15:28.250Z,24.38
2022-08-21T21:18:13.070Z,24.23
2022-08-21T21:20:53.670Z,24.13
2022-08-21T21:23:28.449Z,24.02
2022-08-21T21:26:17.813Z,23.91
2022-08-21T21:28:57.508Z,23.80
2022-08-21T21:31:28.304Z,23.73
2022-08-21T21:33:57.587Z,23.68
2022-08-21T21:36:36.856Z,23.65
2022-08-21T21:39:36.332Z,23.64
2022-08-21T21:42:38.805Z,23.63
2022-08-21T21:45:25.095Z,23.62
2022-08-21T21:48:05.441Z,23.60
2022-08-21T21:50:54.000Z,23.58
2022-08-21T21:53:40.427Z,23.54
2022-08-21T21:56:16.490Z,23.51
2022-08-21T21:59:10.856Z,23.43
2022-08-21T22:01:56.108Z,23.32
2022-08-21T22:04:55.474Z,23.23
2022-08-21T22:07:37.653Z,23.16
2022-08-21T22:10:18.602Z,23.09
2022-08-21T22:13:10.440Z,23.03
2022-08-21T22:15:37.915Z,23.01
2022-08-21T22:18:16.004Z,22.98
2022-08-21T22:20:47.060Z,22.97
2022-08-21T22:23:26.425Z,22.96
2022-08-21T22:25:59.361Z,22.96
2022-08-21T22:28:29.509Z,22.95
2022-08-21T22:31:24.423Z,22.91
2022-08-21T22:34:07.325Z,22.85
2022-08-21T22:36:47.917Z,22.77
2022-08-21T22:39:32.040Z,22.68
2022-08-21T22:42:14.605Z,22.62
2022-08-21T22:45:09.415Z,22.57
2022-08-21T22:47:44.713Z,22.51
2022-08-21T22:50:20.450Z,22.45
2022-08-21T22:52:51.894Z,22.40
2022-08-21T22:55:45.828Z,22.35
2022-08-21T22:58:18.115Z,22.32
2022-08-21T23:00:59.014Z,22.28
2022-08-21T23:06:46.517Z,22.18
2022-08-21T23:09:36.319Z,22.16
2022-08-21T23:12:31.978Z,22.10
2022-08-21T23:15:05.881Z,22.09
2022-08-21T23:18:07.651Z,22.08
2022-08-21T23:20:56.388Z,22.07
2022-08-21T23:23:27.381Z,22.05
2022-08-21T23:26:26.540Z,22.03
2022-08-21T23:29:04.919Z,22.02
2022-08-21T23:31:44.723Z,22.01
2022-08-21T23:34:28.650Z,22.00
2022-08-21T23:37:48.877Z,22.00
2022-08-21T23:44:00.843Z,22.03
2022-08-21T23:46:59.987Z,22.02
2022-08-21T23:49:48.358Z,22.04
2022-08-21T23:52:35.326Z,22.05
2022-08-21T23:55:39.141Z,22.03
2022-08-21T23:58:26.835Z,22.00
